createdAt,value
2023-02-23T00:00:32.450Z,45.00
2023-02-23T00:01:32.460Z,46.10
2023-02-23T00:02:32.460Z,47.00
2023-02-23T00:03:32.442Z,45.60
2023-02-23T00:04:32.406Z,44.50
2023-02-23T00:05:32.401Z,49.30
2023-02-23T00:06:32.446Z,48.30
2023-02-23T00:07:32.385Z,44.70
2023-02-23T00:08:33.919Z,45.50
2023-02-23T00:09:32.344Z,46.40
2023-02-23T00:10:32.323Z,46.30
2023-02-23T00:11:32.323Z,47.90
2023-02-23T00:12:32.328Z,45.20
2023-02-23T00:13:32.314Z,49.00
2023-02-23T00:14:32.300Z,48.00
2023-02-23T00:15:32.272Z,47.00
2023-02-23T00:16:32.327Z,45.70
2023-02-23T00:17:32.275Z,46.60
2023-02-23T00:18:32.242Z,45.00
2023-02-23T00:19:32.261Z,43.80
2023-02-23T00:20:32.239Z,45.70
2023-02-23T00:21:32.202Z,48.40
2023-02-23T00:22:32.242Z,47.70
2023-02-23T00:23:32.254Z,45.40
2023-02-23T00:24:32.184Z,47.50
2023-02-23T00:25:32.163Z,45.00
2023-02-23T00:26:32.156Z,44.70
2023-02-23T00:27:32.166Z,46.40
2023-02-23T00:28:32.132Z,45.20
2023-02-23T00:29:32.147Z,43.70
2023-02-23T00:30:32.177Z,43.30
2023-02-23T00:31:32.114Z,47.10
2023-02-23T00:32:32.169Z,45.70
2023-02-23T00:33:32.090Z,44.50
2023-02-23T00:34:32.091Z,44.40
2023-02-23T00:35:32.064Z,44.90
2023-02-23T00:36:32.043Z,44.90
2023-02-23T00:37:32.102Z,44.20
2023-02-23T00:38:32.014Z,41.50
2023-02-23T00:39:32.008Z,44.70
2023-02-23T00:40:31.990Z,43.40
2023-02-23T00:41:32.008Z,38.90
2023-02-23T00:42:32.004Z,43.70
2023-02-23T00:43:31.999Z,45.60
2023-02-23T00:44:31.958Z,42.50
2023-02-23T00:45:31.941Z,46.30
2023-02-23T00:46:31.938Z,49.20
2023-02-23T00:47:31.920Z,46.80
2023-02-23T00:48:31.936Z,46.00
2023-02-23T00:49:31.905Z,46.80
2023-02-23T00:50:31.885Z,48.60
2023-02-23T00:51:31.874Z,45.10
2023-02-23T00:52:31.887Z,49.90
2023-02-23T00:53:31.856Z,51.40
2023-02-23T00:54:31.829Z,50.10
2023-02-23T00:55:31.845Z,46.60
2023-02-23T00:56:31.819Z,48.80
2023-02-23T00:57:31.802Z,48.50
2023-02-23T00:58:31.830Z,50.10
2023-02-23T00:59:31.794Z,50.10
2023-02-23T01:00:31.793Z,49.50
2023-02-23T01:01:31.792Z,49.10
2023-02-23T01:02:31.814Z,50.30
2023-02-23T01:03:31.728Z,49.30
2023-02-23T01:04:31.749Z,58.00
2023-02-23T01:05:31.720Z,49.90
2023-02-23T01:06:31.697Z,51.20
2023-02-23T01:07:31.738Z,52.20
2023-02-23T01:08:31.667Z,56.40
2023-02-23T01:09:31.710Z,52.40
2023-02-23T01:10:31.647Z,55.70
2023-02-23T01:11:31.641Z,50.10
2023-02-23T01:12:31.634Z,54.40
2023-02-23T01:13:31.666Z,61.30
2023-02-23T01:14:31.611Z,56.90
2023-02-23T01:15:31.619Z,57.00
2023-02-23T01:16:31.579Z,56.40
2023-02-23T01:17:31.579Z,56.80
2023-02-23T01:18:31.568Z,51.60
2023-02-23T01:19:31.572Z,56.20
2023-02-23T01:20:31.539Z,56.00
2023-02-23T01:21:31.532Z,53.10
2023-02-23T01:22:31.543Z,59.90
2023-02-23T01:23:31.508Z,57.50
2023-02-23T01:24:31.487Z,57.50
2023-02-23T01:25:31.487Z,58.90
2023-02-23T01:26:31.458Z,60.60
2023-02-23T01:27:31.468Z,60.50
2023-02-23T01:28:31.454Z,57.40
2023-02-23T01:29:31.429Z,61.80
2023-02-23T01:30:31.469Z,64.10
2023-02-23T01:31:31.509Z,61.60
2023-02-23T01:32:31.407Z,60.30
2023-02-23T01:33:31.414Z,60.70
2023-02-23T01:34:31.425Z,60.50
2023-02-23T01:35:31.384Z,59.90
2023-02-23T01:36:31.370Z,62.90
2023-02-23T01:37:31.380Z,60.10
2023-02-23T01:38:31.336Z,60.40
2023-02-23T01:39:31.332Z,66.90
2023-02-23T01:40:31.339Z,58.60
2023-02-23T01:41:31.310Z,63.60
2023-02-23T01:42:31.282Z,58.50
2023-02-23T01:43:31.295Z,59.20
2023-02-23T01:44:31.307Z,58.20
2023-02-23T01:45:31.254Z,59.60
2023-02-23T01:46:31.264Z,62.70
2023-02-23T01:47:31.244Z,62.40
2023-02-23T01:48:32.647Z,68.50
2023-02-23T01:49:31.205Z,59.80
2023-02-23T01:50:32.189Z,63.00
2023-02-23T01:51:31.196Z,61.30
2023-02-23T01:52:31.164Z,62.30
2023-02-23T01:53:31.167Z,61.20
2023-02-23T01:54:31.176Z,59.90
2023-02-23T01:55:31.139Z,56.20
2023-02-23T01:56:31.125Z,61.60
2023-02-23T01:57:31.111Z,56.00
2023-02-23T01:58:31.116Z,57.70
2023-02-23T01:59:31.126Z,61.80
2023-02-23T02:00:31.066Z,60.10
2023-02-23T02:01:31.091Z,61.90
2023-02-23T02:02:31.046Z,58.70
2023-02-23T02:03:31.050Z,59.00
2023-02-23T02:04:31.057Z,55.50
2023-02-23T02:05:31.026Z,61.70
2023-02-23T02:06:31.016Z,60.50
2023-02-23T02:07:31.007Z,62.40
2023-02-23T02:08:30.984Z,60.00
2023-02-23T02:09:30.998Z,59.50
2023-02-23T02:10:30.966Z,60.60
2023-02-23T02:11:30.964Z,59.80
2023-02-23T02:12:31.893Z,55.90
2023-02-23T02:13:30.938Z,57.70
2023-02-23T02:14:30.956Z,61.70
2023-02-23T02:15:30.910Z,64.70
2023-02-23T02:16:30.936Z,63.40
2023-02-23T02:17:30.915Z,59.70
2023-02-23T02:18:30.870Z,64.00
2023-02-23T02:19:30.899Z,60.10
2023-02-23T02:20:30.848Z,67.10
2023-02-23T02:21:30.841Z,65.00
2023-02-23T02:22:30.839Z,62.50
2023-02-23T02:23:30.823Z,59.10
2023-02-23T02:24:31.267Z,64.20
2023-02-23T02:25:30.816Z,64.60
2023-02-23T02:26:30.803Z,59.10
2023-02-23T02:27:30.777Z,59.60
2023-02-23T02:28:30.787Z,56.90
2023-02-23T02:29:30.743Z,56.30
2023-02-23T02:30:30.777Z,56.80
2023-02-23T02:31:30.823Z,58.10
2023-02-23T02:32:30.719Z,56.20
2023-02-23T02:33:30.716Z,57.90
2023-02-23T02:34:30.699Z,57.60
2023-02-23T02:35:30.718Z,56.90
2023-02-23T02:36:30.687Z,65.30
2023-02-23T02:37:30.676Z,55.90
2023-02-23T02:38:30.648Z,62.30
2023-02-23T02:39:30.660Z,56.50
2023-02-23T02:40:30.653Z,59.50
2023-02-23T02:41:30.645Z,59.60
2023-02-23T02:42:30.594Z,56.90
2023-02-23T02:43:30.596Z,66.70
2023-02-23T02:44:30.584Z,60.80
2023-02-23T02:45:30.607Z,61.80
2023-02-23T02:46:31.371Z,65.50
2023-02-23T02:47:30.574Z,67.70
2023-02-23T02:48:30.539Z,63.60
2023-02-23T02:49:30.597Z,58.70
2023-02-23T02:50:30.524Z,61.10
2023-02-23T02:51:32.090Z,57.30
2023-02-23T02:52:30.501Z,57.70
2023-02-23T02:53:30.499Z,56.50
2023-02-23T02:54:30.514Z,55.50
2023-02-23T02:55:31.434Z,55.10
2023-02-23T02:56:30.463Z,57.30
2023-02-23T02:57:31.301Z,56.60
2023-02-23T02:58:30.447Z,53.60
2023-02-23T02:59:30.445Z,57.10
2023-02-23T03:00:30.617Z,56.10
2023-02-23T03:01:30.711Z,54.70
2023-02-23T03:02:30.404Z,59.40
2023-02-23T03:03:30.389Z,56.70
2023-02-23T03:04:30.380Z,60.10
2023-02-23T03:05:30.703Z,56.80
2023-02-23T03:06:30.739Z,54.20
2023-02-23T03:07:30.369Z,57.70
2023-02-23T03:08:31.775Z,51.70
2023-02-23T03:09:30.329Z,54.40
2023-02-23T03:10:30.319Z,57.90
2023-02-23T03:11:31.760Z,55.10
2023-02-23T03:12:30.325Z,53.70
2023-02-23T03:13:30.813Z,58.00
2023-02-23T03:14:30.264Z,54.50
2023-02-23T03:15:30.257Z,55.90
2023-02-23T03:16:30.275Z,53.20
2023-02-23T03:17:30.482Z,48.80
2023-02-23T03:18:30.231Z,54.80
2023-02-23T03:19:30.223Z,54.30
2023-02-23T03:20:31.641Z,59.20
2023-02-23T03:21:30.551Z,58.40
2023-02-23T03:22:30.192Z,55.60
2023-02-23T03:23:30.204Z,57.60
2023-02-23T03:24:30.174Z,56.30
2023-02-23T03:25:30.154Z,60.40
2023-02-23T03:26:30.166Z,60.20
2023-02-23T03:27:30.109Z,60.90
2023-02-23T03:28:30.219Z,60.90
2023-02-23T03:29:31.564Z,64.50
2023-02-23T03:30:30.124Z,62.20
2023-02-23T03:31:31.567Z,64.70
2023-02-23T03:32:30.202Z,70.80
2023-02-23T03:33:30.049Z,63.20
2023-02-23T03:34:30.049Z,61.10
2023-02-23T03:35:30.217Z,66.90
2023-02-23T03:36:30.012Z,63.90
2023-02-23T03:37:31.476Z,66.60
2023-02-23T03:38:29.997Z,59.70
2023-02-23T03:39:29.978Z,60.50
2023-02-23T03:40:29.983Z,64.60
2023-02-23T03:41:29.980Z,66.30
2023-02-23T03:42:31.474Z,63.30
2023-02-23T03:43:29.933Z,69.10
2023-02-23T03:44:29.922Z,64.70
2023-02-23T03:45:29.954Z,67.00
2023-02-23T03:46:29.908Z,60.40
2023-02-23T03:47:29.925Z,64.40
2023-02-23T03:48:29.889Z,65.70
2023-02-23T03:49:29.960Z,64.70
2023-02-23T03:50:29.854Z,68.00
2023-02-23T03:51:29.852Z,67.20
2023-02-23T03:52:29.879Z,65.40
2023-02-23T03:53:29.835Z,66.90
2023-02-23T03:54:29.801Z,65.90
2023-02-23T03:55:29.787Z,68.90
2023-02-23T03:56:29.817Z,65.50
2023-02-23T03:57:29.812Z,68.10
2023-02-23T03:58:29.758Z,71.10
2023-02-23T03:59:29.768Z,65.80
2023-02-23T04:00:29.757Z,63.90
2023-02-23T04:01:29.722Z,67.00
2023-02-23T04:02:35.977Z,65.10
2023-02-23T04:03:29.747Z,68.20
2023-02-23T04:04:29.684Z,67.80
2023-02-23T04:05:29.709Z,68.00
2023-02-23T04:06:29.669Z,64.00
2023-02-23T04:07:29.672Z,64.90
2023-02-23T04:08:29.651Z,65.80
2023-02-23T04:09:29.654Z,69.50
2023-02-23T04:10:29.641Z,62.80
2023-02-23T04:11:29.646Z,62.40
2023-02-23T04:12:29.601Z,68.30
2023-02-23T04:13:29.595Z,72.30
2023-02-23T04:14:29.570Z,72.00
2023-02-23T04:15:29.590Z,68.40
2023-02-23T04:16:29.926Z,65.50
2023-02-23T04:17:30.330Z,70.80
2023-02-23T04:18:29.531Z,69.00
2023-02-23T04:19:30.974Z,73.50
2023-02-23T04:20:29.529Z,68.70
2023-02-23T04:21:29.713Z,79.80
2023-02-23T04:22:30.456Z,66.60
2023-02-23T04:23:30.456Z,75.10
2023-02-23T04:24:29.556Z,68.10
2023-02-23T04:25:29.450Z,76.40
2023-02-23T04:26:29.453Z,66.80
2023-02-23T04:27:29.430Z,68.90
2023-02-23T04:28:30.922Z,73.10
2023-02-23T04:29:29.405Z,68.60
2023-02-23T04:30:29.468Z,67.30
2023-02-23T04:31:29.444Z,67.70
2023-02-23T04:32:29.433Z,70.10
2023-02-23T04:33:30.911Z,69.30
2023-02-23T04:34:29.377Z,70.80
2023-02-23T04:35:29.327Z,68.10
2023-02-23T04:36:29.357Z,70.00
2023-02-23T04:37:30.301Z,75.40
2023-02-23T04:38:29.298Z,69.30
2023-02-23T04:39:29.300Z,65.20
2023-02-23T04:40:29.288Z,64.10
2023-02-23T04:41:29.322Z,68.10
2023-02-23T04:42:29.352Z,71.20
2023-02-23T04:43:29.259Z,66.80
2023-02-23T04:44:29.246Z,73.00
2023-02-23T04:45:29.269Z,72.50
2023-02-23T04:46:29.254Z,75.80
2023-02-23T04:47:29.251Z,69.40
2023-02-23T04:48:29.192Z,72.30
2023-02-23T04:49:29.194Z,69.00
2023-02-23T04:50:30.190Z,73.50
2023-02-23T04:51:29.173Z,73.10
2023-02-23T04:52:29.146Z,71.00
2023-02-23T04:53:29.301Z,75.10
2023-02-23T04:54:29.142Z,70.60
2023-02-23T04:55:29.356Z,68.30
2023-02-23T04:56:29.120Z,67.80
2023-02-23T04:57:29.107Z,70.30
2023-02-23T04:58:29.078Z,66.70
2023-02-23T04:59:29.096Z,69.00
2023-02-23T05:00:29.066Z,64.20
2023-02-23T05:01:29.075Z,69.30
2023-02-23T05:02:29.030Z,64.20
2023-02-23T05:03:29.076Z,70.40
2023-02-23T05:04:29.037Z,64.20
2023-02-23T05:05:29.024Z,63.70
2023-02-23T05:06:28.991Z,67.40
2023-02-23T05:07:28.980Z,68.70
2023-02-23T05:08:28.976Z,73.50
2023-02-23T05:09:29.398Z,67.70
2023-02-23T05:10:28.960Z,63.70
2023-02-23T05:11:28.944Z,66.10
2023-02-23T05:12:28.912Z,65.60
2023-02-23T05:13:28.965Z,63.10
2023-02-23T05:14:28.932Z,61.70
2023-02-23T05:15:28.916Z,65.70
2023-02-23T05:16:28.961Z,63.80
2023-02-23T05:17:29.033Z,59.30
2023-02-23T05:18:28.878Z,61.30
2023-02-23T05:19:28.858Z,61.50
2023-02-23T05:20:28.858Z,61.30
2023-02-23T05:21:28.831Z,58.60
2023-02-23T05:22:28.800Z,59.50
2023-02-23T05:23:28.800Z,63.50
2023-02-23T05:24:28.804Z,57.80
2023-02-23T05:25:29.743Z,66.00
2023-02-23T05:26:28.796Z,57.10
2023-02-23T05:27:29.708Z,67.80
2023-02-23T05:28:28.775Z,61.70
2023-02-23T05:29:28.738Z,63.50
2023-02-23T05:30:29.691Z,64.00
2023-02-23T05:31:28.926Z,62.80
2023-02-23T05:32:28.788Z,64.50
2023-02-23T05:33:28.707Z,66.90
2023-02-23T05:34:29.733Z,66.10
2023-02-23T05:35:29.623Z,61.10
2023-02-23T05:36:28.655Z,63.50
2023-02-23T05:37:28.654Z,71.20
2023-02-23T05:38:28.624Z,63.40
2023-02-23T05:39:30.608Z,65.30
2023-02-23T05:40:28.625Z,65.20
2023-02-23T05:41:28.594Z,59.90
2023-02-23T05:42:28.585Z,66.40
2023-02-23T05:43:28.591Z,67.00
2023-02-23T05:44:28.556Z,63.50
2023-02-23T05:45:28.542Z,64.40
2023-02-23T05:46:28.571Z,63.40
2023-02-23T05:47:28.530Z,69.10
2023-02-23T05:48:28.499Z,70.40
2023-02-23T05:49:28.500Z,62.60
2023-02-23T05:50:28.484Z,68.80
2023-02-23T05:51:28.502Z,65.60
2023-02-23T05:52:28.470Z,67.80
2023-02-23T05:53:28.454Z,68.70
2023-02-23T05:54:28.441Z,69.50
2023-02-23T05:55:28.433Z,68.70
2023-02-23T05:56:28.471Z,72.60
2023-02-23T05:57:29.884Z,66.40
2023-02-23T05:58:28.619Z,69.10
2023-02-23T05:59:29.298Z,68.30
2023-02-23T06:00:29.826Z,72.70
2023-02-23T06:01:29.215Z,74.90
2023-02-23T06:02:28.872Z,76.00
2023-02-23T06:03:29.823Z,71.50
2023-02-23T06:04:28.329Z,73.60
2023-02-23T06:05:28.324Z,71.20
2023-02-23T06:06:28.326Z,70.40
2023-02-23T06:07:28.327Z,71.20
2023-02-23T06:08:28.301Z,70.30
2023-02-23T06:09:28.287Z,73.00
2023-02-23T06:10:28.337Z,74.80
2023-02-23T06:11:28.252Z,69.90
2023-02-23T06:12:28.364Z,70.80
2023-02-23T06:13:28.227Z,66.70
2023-02-23T06:14:28.242Z,71.90
2023-02-23T06:15:29.959Z,68.40
2023-02-23T06:16:28.322Z,68.00
2023-02-23T06:17:28.415Z,68.60
2023-02-23T06:18:28.176Z,72.80
2023-02-23T06:19:28.198Z,66.10
2023-02-23T06:20:28.148Z,70.10
2023-02-23T06:21:28.155Z,70.40
2023-02-23T06:22:28.159Z,67.00
2023-02-23T06:23:28.187Z,65.40
2023-02-23T06:24:28.122Z,69.70
2023-02-23T06:25:29.106Z,66.90
2023-02-23T06:26:28.089Z,63.50
2023-02-23T06:27:28.078Z,69.40
2023-02-23T06:28:28.064Z,64.60
2023-02-23T06:29:28.077Z,72.10
2023-02-23T06:30:28.066Z,67.70
2023-02-23T06:31:28.331Z,68.30
2023-02-23T06:32:28.075Z,70.60
2023-02-23T06:33:28.017Z,65.40
2023-02-23T06:34:28.003Z,68.20
2023-02-23T06:35:27.990Z,68.80
2023-02-23T06:36:28.021Z,73.10
2023-02-23T06:37:27.968Z,70.90
2023-02-23T06:38:27.996Z,67.90
2023-02-23T06:39:27.942Z,73.50
2023-02-23T06:40:27.935Z,71.00
2023-02-23T06:41:27.958Z,69.00
2023-02-23T06:42:27.929Z,67.40
2023-02-23T06:43:28.852Z,68.10
2023-02-23T06:44:27.883Z,66.40
2023-02-23T06:45:27.877Z,67.50
2023-02-23T06:46:27.907Z,71.20
2023-02-23T06:47:27.862Z,77.30
2023-02-23T06:48:27.869Z,71.90
2023-02-23T06:49:27.843Z,71.00
2023-02-23T06:50:27.853Z,70.00
2023-02-23T06:51:27.821Z,68.70
2023-02-23T06:52:27.828Z,68.60
2023-02-23T06:53:27.784Z,73.00
2023-02-23T06:54:27.778Z,72.20
2023-02-23T06:55:27.751Z,70.30
2023-02-23T06:56:27.841Z,66.10
2023-02-23T06:57:27.766Z,70.30
2023-02-23T06:58:27.763Z,68.70
2023-02-23T06:59:27.718Z,71.60
2023-02-23T07:00:27.823Z,69.30
2023-02-23T07:01:28.720Z,75.20
2023-02-23T07:02:27.680Z,66.00
2023-02-23T07:03:27.824Z,65.00
2023-02-23T07:04:27.657Z,68.70
2023-02-23T07:05:27.689Z,71.80
2023-02-23T07:06:27.633Z,65.40
2023-02-23T07:07:27.621Z,65.30
2023-02-23T07:08:27.614Z,70.90
2023-02-23T07:09:29.191Z,70.50
2023-02-23T07:10:27.604Z,66.60
2023-02-23T07:11:27.591Z,65.90
2023-02-23T07:12:27.562Z,68.30
2023-02-23T07:13:27.815Z,67.50
2023-02-23T07:14:27.533Z,66.30
2023-02-23T07:15:27.537Z,65.40
2023-02-23T07:16:27.537Z,69.40
2023-02-23T07:17:27.646Z,70.90
2023-02-23T07:18:27.503Z,68.80
2023-02-23T07:19:27.509Z,68.30
2023-02-23T07:20:27.482Z,71.60
2023-02-23T07:21:27.472Z,70.50
2023-02-23T07:22:27.468Z,68.80
2023-02-23T07:23:27.452Z,70.00
2023-02-23T07:24:27.436Z,67.30
2023-02-23T07:25:27.801Z,75.40
2023-02-23T07:26:27.402Z,76.10
2023-02-23T07:27:27.423Z,72.30
2023-02-23T07:28:27.401Z,67.50
2023-02-23T07:29:27.362Z,73.20
2023-02-23T07:30:27.395Z,72.40
2023-02-23T07:31:27.398Z,71.30
2023-02-23T07:32:27.663Z,72.10
2023-02-23T07:33:27.367Z,72.20
2023-02-23T07:34:27.315Z,69.00
2023-02-23T07:35:27.299Z,66.80
2023-02-23T07:36:27.328Z,71.50
2023-02-23T07:37:28.085Z,66.60
2023-02-23T07:38:27.274Z,65.10
2023-02-23T07:39:28.089Z,75.00
2023-02-23T07:40:27.256Z,68.80
2023-02-23T07:41:27.257Z,74.20
2023-02-23T07:42:28.734Z,70.50
2023-02-23T07:43:27.232Z,71.00
2023-02-23T07:44:27.235Z,74.30
2023-02-23T07:45:27.225Z,74.20
2023-02-23T07:46:27.185Z,80.70
2023-02-23T07:47:27.226Z,82.50
2023-02-23T07:48:27.184Z,78.50
2023-02-23T07:49:27.153Z,75.00
2023-02-23T07:50:27.137Z,79.50
2023-02-23T07:51:27.137Z,77.60
2023-02-23T07:52:27.159Z,80.10
2023-02-23T07:53:27.453Z,76.00
2023-02-23T07:54:27.097Z,77.60
2023-02-23T07:55:28.540Z,80.20
2023-02-23T07:56:27.147Z,76.20
2023-02-23T07:57:27.059Z,75.40
2023-02-23T07:58:27.054Z,73.10
2023-02-23T07:59:27.059Z,76.70
2023-02-23T08:00:27.058Z,77.50
2023-02-23T08:01:27.043Z,77.90
2023-02-23T08:02:27.045Z,70.20
2023-02-23T08:03:27.009Z,73.40
2023-02-23T08:04:28.004Z,74.40
2023-02-23T08:05:26.970Z,70.40
2023-02-23T08:06:26.983Z,72.00
2023-02-23T08:07:26.972Z,71.90
2023-02-23T08:08:26.948Z,74.90
2023-02-23T08:09:26.979Z,75.60
2023-02-23T08:10:26.972Z,75.80
2023-02-23T08:11:26.912Z,75.10
2023-02-23T08:12:26.944Z,72.00
2023-02-23T08:13:27.701Z,71.50
2023-02-23T08:14:26.885Z,76.20
2023-02-23T08:15:26.875Z,71.80
2023-02-23T08:16:26.913Z,77.20
2023-02-23T08:17:26.847Z,73.40
2023-02-23T08:18:26.896Z,70.60
2023-02-23T08:19:27.848Z,73.00
2023-02-23T08:20:26.870Z,66.70
2023-02-23T08:21:26.806Z,73.80
2023-02-23T08:22:26.807Z,70.60
2023-02-23T08:23:26.816Z,71.30
2023-02-23T08:24:26.794Z,79.30
2023-02-23T08:25:26.779Z,72.40
2023-02-23T08:26:27.694Z,67.30
2023-02-23T08:27:26.726Z,69.40
2023-02-23T08:28:26.728Z,71.00
2023-02-23T08:29:26.736Z,66.80
2023-02-23T08:30:26.903Z,68.90
2023-02-23T08:31:26.936Z,66.60
2023-02-23T08:32:26.908Z,63.70
2023-02-23T08:33:26.755Z,67.00
2023-02-23T08:34:26.689Z,70.60
2023-02-23T08:35:26.697Z,65.80
2023-02-23T08:36:26.660Z,69.30
2023-02-23T08:37:26.669Z,64.10
2023-02-23T08:38:26.678Z,62.30
2023-02-23T08:39:26.596Z,83.60
2023-02-23T08:40:26.589Z,113.90
2023-02-23T08:41:26.575Z,69.40
2023-02-23T08:42:26.569Z,63.40
2023-02-23T08:43:26.653Z,65.40
2023-02-23T08:44:26.547Z,67.60
2023-02-23T08:45:26.572Z,63.80
2023-02-23T08:46:26.553Z,58.90
2023-02-23T08:47:26.520Z,60.20
2023-02-23T08:48:26.504Z,55.20
2023-02-23T08:49:26.493Z,62.70
2023-02-23T08:50:27.481Z,61.50
2023-02-23T08:51:26.469Z,61.40
2023-02-23T08:52:26.460Z,60.80
2023-02-23T08:53:26.439Z,55.00
2023-02-23T08:54:26.556Z,55.40
2023-02-23T08:55:26.410Z,57.30
2023-02-23T08:56:26.413Z,54.20
2023-02-23T08:57:26.414Z,57.50
2023-02-23T08:58:26.376Z,55.40
2023-02-23T08:59:27.819Z,57.00
2023-02-23T09:00:26.393Z,57.40
2023-02-23T09:01:26.368Z,53.90
2023-02-23T09:02:26.328Z,84.10
2023-02-23T09:03:26.427Z,65.60
2023-02-23T09:04:26.309Z,53.10
2023-02-23T09:05:26.383Z,52.10
2023-02-23T09:06:26.417Z,53.30
2023-02-23T09:07:26.354Z,53.30
2023-02-23T09:08:26.258Z,52.10
2023-02-23T09:09:26.820Z,51.50
2023-02-23T09:10:26.251Z,53.70
2023-02-23T09:11:26.232Z,52.10
2023-02-23T09:12:26.227Z,53.30
2023-02-23T09:13:26.221Z,52.50
2023-02-23T09:14:27.239Z,50.40
2023-02-23T09:15:26.238Z,50.70
2023-02-23T09:16:26.196Z,51.00
2023-02-23T09:17:26.202Z,60.20
2023-02-23T09:18:26.154Z,52.80
2023-02-23T09:19:26.180Z,50.60
2023-02-23T09:20:26.120Z,52.60
2023-02-23T09:21:26.102Z,49.60
2023-02-23T09:22:26.107Z,51.50
2023-02-23T09:23:26.080Z,52.10
2023-02-23T09:24:26.083Z,49.40
2023-02-23T09:25:26.073Z,50.10
2023-02-23T09:26:26.055Z,52.10
2023-02-23T09:27:26.056Z,51.80
2023-02-23T09:28:26.034Z,49.10
2023-02-23T09:29:26.008Z,53.50
2023-02-23T09:30:26.017Z,49.20
2023-02-23T09:31:26.040Z,50.90
2023-02-23T09:32:26.072Z,48.70
2023-02-23T09:33:25.964Z,49.40
2023-02-23T09:34:25.955Z,52.10
2023-02-23T09:35:25.955Z,50.80
2023-02-23T09:36:25.942Z,50.00
2023-02-23T09:37:25.980Z,49.20
2023-02-23T09:38:25.916Z,45.50
2023-02-23T09:39:37.384Z,44.40
2023-02-23T09:40:26.927Z,44.70
2023-02-23T09:41:25.883Z,42.70
2023-02-23T09:42:25.877Z,46.30
2023-02-23T09:43:25.892Z,43.30
2023-02-23T09:44:25.846Z,43.80
2023-02-23T09:45:25.852Z,45.90
2023-02-23T09:46:25.846Z,41.00
2023-02-23T09:47:25.816Z,44.30
2023-02-23T09:48:25.801Z,47.90
2023-02-23T09:49:25.819Z,58.80
2023-02-23T09:50:26.877Z,53.40
2023-02-23T09:51:25.769Z,49.10
2023-02-23T09:52:26.250Z,42.80
2023-02-23T09:53:25.744Z,40.60
2023-02-23T09:54:25.732Z,41.40
2023-02-23T09:55:26.868Z,41.70
2023-02-23T09:56:25.713Z,45.90
2023-02-23T09:57:25.725Z,45.00
2023-02-23T09:58:25.744Z,48.20
2023-02-23T09:59:25.713Z,47.60
2023-02-23T10:00:26.433Z,50.70
2023-02-23T10:01:25.703Z,46.90
2023-02-23T10:02:25.669Z,46.30
2023-02-23T10:03:25.628Z,46.10
2023-02-23T10:04:25.658Z,45.70
2023-02-23T10:05:25.608Z,47.30
2023-02-23T10:06:25.636Z,45.00
2023-02-23T10:07:25.596Z,46.70
2023-02-23T10:08:25.598Z,44.80
2023-02-23T10:09:25.897Z,42.20
2023-02-23T10:10:25.628Z,45.70
2023-02-23T10:11:25.572Z,45.10
2023-02-23T10:12:25.549Z,52.60
2023-02-23T10:13:25.520Z,47.40
2023-02-23T10:14:25.553Z,43.70
2023-02-23T10:15:25.514Z,45.20
2023-02-23T10:16:25.500Z,42.70
2023-02-23T10:17:26.488Z,41.60
2023-02-23T10:18:35.937Z,44.00
2023-02-23T10:19:26.447Z,42.40
2023-02-23T10:20:25.483Z,41.90
2023-02-23T10:21:25.505Z,43.70
2023-02-23T10:22:25.433Z,43.60
2023-02-23T10:23:25.433Z,41.90
2023-02-23T10:24:25.426Z,35.90
2023-02-23T10:25:25.400Z,38.10
2023-02-23T10:26:26.865Z,37.70
2023-02-23T10:27:25.369Z,38.00
2023-02-23T10:28:25.372Z,37.50
2023-02-23T10:29:25.365Z,35.90
2023-02-23T10:30:25.340Z,35.40
2023-02-23T10:31:26.967Z,38.50
2023-02-23T10:32:25.505Z,35.40
2023-02-23T10:33:25.300Z,35.20
2023-02-23T10:34:25.518Z,36.00
2023-02-23T10:35:25.419Z,35.50
2023-02-23T10:36:26.386Z,37.10
2023-02-23T10:37:25.728Z,37.10
2023-02-23T10:38:25.378Z,37.10
2023-02-23T10:39:25.356Z,39.70
2023-02-23T10:40:25.351Z,37.80
2023-02-23T10:41:25.596Z,39.90
2023-02-23T10:42:25.251Z,38.80
2023-02-23T10:43:25.715Z,36.80
2023-02-23T10:44:25.435Z,41.20
2023-02-23T10:45:25.711Z,42.70
2023-02-23T10:46:25.224Z,40.00
2023-02-23T10:47:25.333Z,45.20
2023-02-23T10:48:25.621Z,43.20
2023-02-23T10:49:26.444Z,43.90
2023-02-23T10:50:25.282Z,39.50
2023-02-23T10:51:25.406Z,40.60
2023-02-23T10:52:25.158Z,44.10
2023-02-23T10:53:25.218Z,39.50
2023-02-23T10:54:25.173Z,42.60
2023-02-23T10:55:25.038Z,43.20
2023-02-23T10:56:25.151Z,43.50
2023-02-23T10:57:25.047Z,47.70
2023-02-23T10:58:25.500Z,59.20
2023-02-23T10:59:25.256Z,51.30
2023-02-23T11:00:25.281Z,44.30
2023-02-23T11:01:25.295Z,39.70
2023-02-23T11:02:25.713Z,40.80
2023-02-23T11:03:25.430Z,41.60
2023-02-23T11:04:25.235Z,38.70
2023-02-23T11:05:24.962Z,38.90
2023-02-23T11:06:25.395Z,41.70
2023-02-23T11:07:25.382Z,39.40
2023-02-23T11:08:25.148Z,38.20
2023-02-23T11:09:36.970Z,40.90
2023-02-23T11:10:26.151Z,40.60
2023-02-23T11:11:25.193Z,38.40
2023-02-23T11:12:25.373Z,37.80
2023-02-23T11:13:25.147Z,35.40
2023-02-23T11:14:25.285Z,36.50
2023-02-23T11:15:35.223Z,33.90
2023-02-23T11:16:25.928Z,32.60
2023-02-23T11:17:26.064Z,33.40
2023-02-23T11:18:24.856Z,33.50
2023-02-23T11:19:25.098Z,33.60
2023-02-23T11:20:24.767Z,33.40
2023-02-23T11:21:24.754Z,33.80
2023-02-23T11:22:26.772Z,33.30
2023-02-23T11:23:24.746Z,34.50
2023-02-23T11:24:24.747Z,35.90
2023-02-23T11:25:24.702Z,32.30
2023-02-23T11:26:25.170Z,31.90
2023-02-23T11:27:24.705Z,34.60
2023-02-23T11:28:24.730Z,35.00
2023-02-23T11:29:24.709Z,33.10
2023-02-23T11:30:24.838Z,34.70
2023-02-23T11:31:24.669Z,34.00
2023-02-23T11:32:24.740Z,31.80
2023-02-23T11:33:24.619Z,32.60
2023-02-23T11:34:24.655Z,32.20
2023-02-23T11:35:24.670Z,31.90
2023-02-23T11:36:25.097Z,34.20
2023-02-23T11:37:24.606Z,33.40
2023-02-23T11:38:26.032Z,30.80
2023-02-23T11:39:24.589Z,32.80
2023-02-23T11:40:24.568Z,33.50
2023-02-23T11:41:24.542Z,32.40
2023-02-23T11:42:24.548Z,31.70
2023-02-23T11:43:24.510Z,31.80
2023-02-23T11:44:24.500Z,29.80
2023-02-23T11:45:24.511Z,29.60
2023-02-23T11:46:24.732Z,30.70
2023-02-23T11:47:24.540Z,29.50
2023-02-23T11:48:24.456Z,30.70
2023-02-23T11:49:24.444Z,29.40
2023-02-23T11:50:24.764Z,30.80
2023-02-23T11:51:25.380Z,30.80
2023-02-23T11:52:24.407Z,29.30
2023-02-23T11:53:26.164Z,27.00
2023-02-23T11:54:24.452Z,30.20
2023-02-23T11:55:24.372Z,27.40
2023-02-23T11:56:24.395Z,28.70
2023-02-23T11:57:24.418Z,29.70
2023-02-23T11:58:24.600Z,27.30
2023-02-23T11:59:25.797Z,29.30
2023-02-23T12:00:24.331Z,27.90
2023-02-23T12:01:24.317Z,26.60
2023-02-23T12:02:24.299Z,27.60
2023-02-23T12:03:24.339Z,27.10
2023-02-23T12:04:24.287Z,28.90
2023-02-23T12:05:24.958Z,25.20
2023-02-23T12:06:24.263Z,27.50
2023-02-23T12:07:24.316Z,28.10
2023-02-23T12:08:25.756Z,27.40
2023-02-23T12:09:24.229Z,26.60
2023-02-23T12:10:24.226Z,28.30
2023-02-23T12:11:24.241Z,26.90
2023-02-23T12:12:24.221Z,28.50
2023-02-23T12:13:24.186Z,27.10
2023-02-23T12:14:24.162Z,26.70
2023-02-23T12:15:24.154Z,27.70
2023-02-23T12:16:24.217Z,26.30
2023-02-23T12:17:24.198Z,26.30
2023-02-23T12:18:25.575Z,28.60
2023-02-23T12:19:24.113Z,26.80
2023-02-23T12:20:24.095Z,25.90
2023-02-23T12:21:24.093Z,28.10
2023-02-23T12:22:24.096Z,25.40
2023-02-23T12:23:24.050Z,27.20
2023-02-23T12:24:24.096Z,25.90
2023-02-23T12:25:24.028Z,25.00
2023-02-23T12:26:24.026Z,26.00
2023-02-23T12:27:24.029Z,24.50
2023-02-23T12:28:24.023Z,23.70
2023-02-23T12:29:24.039Z,23.50
2023-02-23T12:30:24.020Z,23.20
2023-02-23T12:31:25.428Z,25.00
2023-02-23T12:32:24.134Z,22.00
2023-02-23T12:33:23.984Z,24.10
2023-02-23T12:34:23.946Z,21.60
2023-02-23T12:35:23.949Z,21.40
2023-02-23T12:36:23.932Z,22.30
2023-02-23T12:37:23.925Z,23.50
2023-02-23T12:38:23.901Z,22.00
2023-02-23T12:39:23.915Z,22.90
2023-02-23T12:40:24.348Z,21.60
2023-02-23T12:41:23.867Z,23.20
2023-02-23T12:42:23.877Z,23.30
2023-02-23T12:43:23.883Z,21.20
2023-02-23T12:44:24.831Z,21.60
2023-02-23T12:45:23.812Z,21.90
2023-02-23T12:46:25.283Z,21.10
2023-02-23T12:47:23.815Z,20.90
2023-02-23T12:48:23.775Z,20.20
2023-02-23T12:49:26.301Z,22.60
2023-02-23T12:50:23.773Z,20.60
2023-02-23T12:51:23.732Z,19.30
2023-02-23T12:52:23.745Z,19.60